Time;durP1;ratioP1;P1;durP2;ratioP2;P2;SDS_P1;SDS_P2;PMS_P1;PMS_P2;Temp;Humidity;BMP_temperature;BMP_pressure;BME280_temperature;BME280_humidity;BME280_pressure;Samples;Min_cycle;Max_cycle;Signal;HPM_P1;HPM_P2
2023/09/07 00:02:52;;;;;;;7.57;7.00;;;18.30;69.10;;;;;;6189769;28;20243;-80
2023/09/07 00:05:56;;;;;;;6.80;6.40;;;18.20;69.20;;;;;;6209545;28;20246;-82
2023/09/07 00:08:59;;;;;;;6.43;6.13;;;18.20;69.30;;;;;;6197876;28;20560;-81
2023/09/07 00:12:02;;;;;;;6.87;6.33;;;18.20;69.40;;;;;;6217076;28;20294;-80
2023/09/07 00:15:08;;;;;;;6.73;6.27;;;18.20;69.40;;;;;;6203372;28;20236;-79
2023/09/07 00:18:11;;;;;;;6.50;6.10;;;18.20;69.30;;;;;;6210559;28;20703;-78
2023/09/07 00:21:14;;;;;;;7.33;6.80;;;18.20;69.30;;;;;;6209663;28;20238;-79
2023/09/07 00:24:18;;;;;;;6.30;6.00;;;18.20;69.40;;;;;;6216726;28;20239;-77
2023/09/07 00:27:21;;;;;;;6.83;6.53;;;18.20;69.40;;;;;;6216073;28;20322;-82
2023/09/07 00:30:27;;;;;;;7.00;6.70;;;18.20;69.40;;;;;;6206585;28;20612;-84
2023/09/07 00:33:30;;;;;;;7.17;6.77;;;18.20;69.70;;;;;;6208924;28;20321;-80
2023/09/07 00:36:33;;;;;;;6.80;6.47;;;18.20;69.70;;;;;;6203310;28;20715;-83
2023/09/07 00:39:38;;;;;;;7.17;6.77;;;18.20;69.60;;;;;;6216947;28;20238;-82
2023/09/07 00:42:41;;;;;;;6.83;6.33;;;18.20;69.60;;;;;;6215094;28;20305;-79
2023/09/07 00:45:46;;;;;;;7.43;6.90;;;18.20;69.60;;;;;;6207697;28;20231;-82
2023/09/07 00:48:50;;;;;;;7.37;6.93;;;18.20;69.50;;;;;;6193072;28;20310;-82
2023/09/07 00:51:53;;;;;;;6.90;6.50;;;18.20;69.60;;;;;;6192197;28;20239;-81
2023/09/07 00:54:57;;;;;;;7.47;6.97;;;18.20;69.60;;;;;;6176896;28;20228;-82
2023/09/07 00:58:00;;;;;;;6.70;6.40;;;18.20;69.60;;;;;;6185073;28;20243;-85
2023/09/07 01:01:05;;;;;;;7.33;6.83;;;18.10;69.70;;;;;;6184279;28;20324;-80
2023/09/07 01:04:08;;;;;;;6.37;6.03;;;18.10;69.60;;;;;;6175030;28;20243;-84
2023/09/07 01:07:16;;;;;;;6.50;6.20;;;18.10;69.80;;;;;;6174998;28;20749;-84
2023/09/07 01:10:21;;;;;;;6.60;6.30;;;18.00;70.00;;;;;;6182075;28;20252;-83
2023/09/07 01:13:25;;;;;;;6.67;6.37;;;18.00;70.10;;;;;;6195077;28;20922;-87
2023/09/07 01:16:29;;;;;;;6.67;6.33;;;17.90;70.30;;;;;;6214395;28;20239;-82
2023/09/07 01:19:33;;;;;;;7.83;7.33;;;17.80;70.40;;;;;;6209490;28;20636;-83
2023/09/07 01:22:38;;;;;;;6.77;6.47;;;17.80;70.50;;;;;;6198158;28;20246;-80
2023/09/07 01:25:42;;;;;;;6.63;6.23;;;17.80;70.80;;;;;;6209965;28;20314;-80
2023/09/07 01:28:46;;;;;;;7.30;6.73;;;17.70;70.90;;;;;;6212342;28;20231;-82
2023/09/07 01:31:49;;;;;;;6.60;6.30;;;17.60;71.00;;;;;;6211484;28;20637;-82
2023/09/07 01:34:56;;;;;;;7.20;6.73;;;17.60;71.10;;;;;;6214484;28;20235;-81
2023/09/07 01:38:00;;;;;;;6.97;6.60;;;17.60;71.10;;;;;;6201319;28;20240;-78
2023/09/07 01:41:04;;;;;;;7.47;6.80;;;17.60;71.20;;;;;;6198174;28;20310;-82
2023/09/07 01:44:07;;;;;;;7.10;6.63;;;17.60;71.20;;;;;;6203606;28;20282;-84
2023/09/07 01:47:10;;;;;;;7.53;7.13;;;17.50;71.10;;;;;;6200150;28;20246;-83
2023/09/07 01:50:14;;;;;;;6.90;6.60;;;17.60;71.10;;;;;;6212556;28;20838;-83
2023/09/07 01:53:18;;;;;;;8.77;8.10;;;17.60;71.10;;;;;;6211776;28;20731;-83
2023/09/07 01:56:21;;;;;;;7.20;6.80;;;17.60;71.20;;;;;;6205977;28;20857;-84
2023/09/07 01:59:25;;;;;;;7.83;7.33;;;17.60;71.20;;;;;;6205683;28;20243;-84
2023/09/07 02:02:28;;;;;;;8.33;7.60;;;17.60;71.20;;;;;;6208579;28;20370;-81
2023/09/07 02:05:32;;;;;;;7.93;7.43;;;17.60;71.10;;;;;;6213338;28;20383;-78
2023/09/07 02:08:36;;;;;;;7.53;7.03;;;17.50;71.10;;;;;;6200526;28;20235;-83
2023/09/07 02:11:40;;;;;;;8.27;7.57;;;17.50;71.10;;;;;;6207422;28;20326;-82
2023/09/07 02:14:43;;;;;;;7.57;7.17;;;17.50;71.00;;;;;;6202192;28;20228;-82
2023/09/07 02:17:46;;;;;;;7.93;7.40;;;17.50;71.10;;;;;;6204658;28;20774;-82
2023/09/07 02:20:50;;;;;;;8.67;7.80;;;17.50;71.10;;;;;;6200989;28;20238;-81
2023/09/07 02:23:54;;;;;;;7.40;6.70;;;17.50;71.10;;;;;;6213887;28;20238;-82
2023/09/07 02:26:57;;;;;;;8.00;7.53;;;17.50;71.10;;;;;;6213351;28;20234;-83
2023/09/07 02:30:01;;;;;;;8.60;7.93;;;17.50;71.20;;;;;;6197949;28;20238;-83
2023/09/07 02:33:05;;;;;;;8.57;7.97;;;17.50;71.30;;;;;;6198483;28;20839;-85
2023/09/07 02:36:08;;;;;;;8.30;7.70;;;17.50;71.20;;;;;;6207188;28;20602;-82
2023/09/07 02:39:13;;;;;;;7.50;6.90;;;17.50;71.20;;;;;;6221538;28;20322;-83
2023/09/07 02:42:16;;;;;;;7.97;7.53;;;17.50;71.20;;;;;;6208512;28;20236;-81
2023/09/07 02:45:19;;;;;;;7.50;7.10;;;17.40;71.20;;;;;;6203882;28;20483;-80
2023/09/07 02:48:23;;;;;;;9.27;8.20;;;17.50;71.20;;;;;;6212717;28;20329;-82
2023/09/07 02:51:26;;;;;;;7.93;7.30;;;17.50;71.30;;;;;;6200425;28;20254;-84
2023/09/07 02:54:30;;;;;;;8.73;7.90;;;17.40;71.20;;;;;;6197783;28;20239;-82
2023/09/07 02:57:35;;;;;;;7.80;7.30;;;17.40;71.10;;;;;;6200890;28;20839;-83
2023/09/07 03:00:44;;;;;;;12.00;7.87;;;17.50;70.90;;;;;;6209309;28;20250;-83
2023/09/07 03:03:47;;;;;;;7.60;7.10;;;17.50;70.80;;;;;;6215191;28;20238;-85
2023/09/07 03:06:51;;;;;;;8.87;8.17;;;17.50;70.80;;;;;;6208240;28;20241;-81
2023/09/07 03:09:56;;;;;;;8.80;8.17;;;17.50;70.80;;;;;;6206835;28;20235;-83
2023/09/07 03:12:59;;;;;;;8.60;7.97;;;17.50;70.70;;;;;;6191563;28;20694;-84
2023/09/07 03:16:04;;;;;;;8.57;8.03;;;17.50;70.40;;;;;;6185555;28;20233;-79
2023/09/07 03:19:07;;;;;;;8.07;7.47;;;17.50;70.40;;;;;;6186063;28;20326;-82
2023/09/07 03:22:10;;;;;;;8.20;7.70;;;17.50;70.30;;;;;;6192188;28;20263;-80
2023/09/07 03:25:15;;;;;;;6.97;6.63;;;17.50;70.20;;;;;;6184937;28;20293;-84
2023/09/07 03:28:19;;;;;;;7.40;6.93;;;17.50;70.20;;;;;;6189998;28;20236;-82
2023/09/07 03:31:22;;;;;;;6.60;6.10;;;17.50;70.10;;;;;;6185974;28;20239;-78
2023/09/07 03:34:25;;;;;;;7.40;6.90;;;17.50;70.10;;;;;;6205791;28;20238;-84
2023/09/07 03:37:30;;;;;;;6.47;6.10;;;17.40;70.20;;;;;;6208263;28;20235;-82
2023/09/07 03:40:34;;;;;;;7.30;6.90;;;17.40;70.20;;;;;;6205629;28;20289;-81
2023/09/07 03:43:37;;;;;;;6.63;6.33;;;17.30;70.20;;;;;;6227105;28;20314;-81
2023/09/07 03:46:41;;;;;;;7.07;6.67;;;17.20;70.50;;;;;;6210638;28;20316;-80
2023/09/07 03:49:44;;;;;;;8.10;7.70;;;17.20;70.80;;;;;;6214464;28;20404;-80
2023/09/07 03:52:47;;;;;;;7.93;7.43;;;17.10;71.00;;;;;;6215456;28;20235;-81
2023/09/07 03:55:52;;;;;;;7.03;6.63;;;17.00;71.20;;;;;;6221928;28;20239;-79
2023/09/07 03:58:55;;;;;;;8.10;7.57;;;17.00;71.30;;;;;;6208803;28;20730;-82
2023/09/07 04:01:58;;;;;;;7.67;7.17;;;17.00;71.60;;;;;;6212437;28;20602;-81
2023/09/07 04:05:04;;;;;;;8.17;7.67;;;16.90;71.70;;;;;;6207151;28;20633;-80
2023/09/07 04:08:08;;;;;;;7.93;7.40;;;16.90;71.80;;;;;;6204536;28;20232;-80
2023/09/07 04:11:12;;;;;;;8.50;7.90;;;16.90;71.80;;;;;;6213568;28;20231;-80
2023/09/07 04:14:16;;;;;;;9.07;8.27;;;16.90;71.70;;;;;;6212391;28;20231;-80
2023/09/07 04:17:19;;;;;;;9.07;8.53;;;16.90;71.60;;;;;;6212561;28;20254;-80
2023/09/07 04:20:23;;;;;;;8.90;8.17;;;16.90;71.70;;;;;;6210640;28;20945;-81
2023/09/07 04:23:26;;;;;;;8.80;8.27;;;16.90;71.50;;;;;;6203387;28;20318;-81
2023/09/07 04:26:31;;;;;;;8.60;8.03;;;16.90;71.50;;;;;;6207128;28;20305;-78
2023/09/07 04:29:34;;;;;;;10.20;9.30;;;16.90;71.50;;;;;;6211269;28;20236;-77
2023/09/07 04:32:37;;;;;;;8.93;8.30;;;16.90;71.70;;;;;;6200799;28;20366;-75
2023/09/07 04:35:40;;;;;;;10.97;9.07;;;16.90;71.70;;;;;;6208794;28;20333;-79
2023/09/07 04:38:43;;;;;;;9.60;8.93;;;17.00;71.80;;;;;;6208508;28;20240;-80
2023/09/07 04:41:48;;;;;;;9.37;8.67;;;17.00;71.70;;;;;;6201198;28;20608;-80
2023/09/07 04:44:53;;;;;;;9.70;8.67;;;17.00;71.80;;;;;;6219362;28;20244;-81
2023/09/07 04:47:56;;;;;;;9.00;8.40;;;17.00;71.50;;;;;;6207644;28;20240;-80
2023/09/07 04:51:00;;;;;;;9.70;9.00;;;17.00;71.50;;;;;;6190744;28;20322;-80
2023/09/07 04:54:03;;;;;;;9.73;8.90;;;17.10;71.40;;;;;;6178057;28;20715;-81
2023/09/07 04:57:08;;;;;;;9.73;8.93;;;17.20;71.20;;;;;;6182605;28;20529;-79
2023/09/07 05:00:12;;;;;;;10.67;9.57;;;17.20;71.00;;;;;;6187751;28;20716;-81
2023/09/07 05:03:15;;;;;;;10.87;9.27;;;17.20;71.00;;;;;;6210225;28;20242;-79
2023/09/07 05:06:19;;;;;;;8.60;8.00;;;17.30;70.90;;;;;;6197755;28;20327;-80
2023/09/07 05:09:23;;;;;;;9.90;9.20;;;17.30;70.80;;;;;;6209830;28;20240;-79
2023/09/07 05:12:28;;;;;;;9.77;8.90;;;17.30;70.90;;;;;;6211218;28;20799;-80
2023/09/07 05:15:31;;;;;;;9.70;9.00;;;17.40;70.80;;;;;;6210223;28;20645;-79
2023/09/07 05:18:34;;;;;;;9.43;8.70;;;17.50;70.60;;;;;;6214818;28;20240;-80
2023/09/07 05:21:38;;;;;;;8.77;8.17;;;17.50;70.40;;;;;;6210405;28;20231;-80
2023/09/07 05:24:41;;;;;;;9.07;8.37;;;17.50;70.40;;;;;;6200162;28;20378;-79
2023/09/07 05:27:45;;;;;;;11.13;8.37;;;17.50;70.30;;;;;;6202588;28;20247;-80
2023/09/07 05:30:49;;;;;;;9.57;8.83;;;17.60;70.30;;;;;;6199232;28;20766;-79
2023/09/07 05:33:52;;;;;;;10.87;8.87;;;17.60;70.10;;;;;;6213359;28;20275;-79
2023/09/07 05:36:55;;;;;;;8.77;8.00;;;17.70;70.00;;;;;;6207578;28;20736;-79
2023/09/07 05:39:58;;;;;;;9.83;8.97;;;17.70;69.80;;;;;;6213299;28;20249;-78
2023/09/07 05:43:03;;;;;;;10.43;9.57;;;17.80;69.70;;;;;;6209963;28;20239;-80
2023/09/07 05:46:07;;;;;;;9.17;8.37;;;17.80;69.60;;;;;;6211662;28;20231;-81
2023/09/07 05:49:10;;;;;;;9.90;8.97;;;17.90;69.40;;;;;;6205846;28;20236;-78
2023/09/07 05:52:13;;;;;;;9.57;8.87;;;18.00;69.20;;;;;;6209285;28;20235;-80
2023/09/07 05:55:16;;;;;;;7.87;7.23;;;18.00;68.80;;;;;;6214176;28;20227;-79
2023/09/07 05:58:21;;;;;;;8.03;7.47;;;18.10;68.70;;;;;;6200647;28;20353;-81
2023/09/07 06:01:24;;;;;;;9.07;8.47;;;18.20;68.70;;;;;;6209378;28;20275;-81
2023/09/07 06:04:27;;;;;;;7.97;7.37;;;18.20;68.20;;;;;;6208035;28;20356;-80
2023/09/07 06:07:31;;;;;;;9.30;8.67;;;18.40;68.10;;;;;;6197082;28;20327;-80
2023/09/07 06:10:34;;;;;;;12.50;8.30;;;18.50;67.10;;;;;;6208078;28;20286;-80
2023/09/07 06:13:38;;;;;;;9.63;8.80;;;19.00;66.50;;;;;;6207583;28;20250;-80
2023/09/07 06:16:41;;;;;;;9.77;8.40;;;19.50;64.80;;;;;;6219141;28;20608;-80
2023/09/07 06:19:46;;;;;;;10.00;9.10;;;19.70;64.20;;;;;;6209795;28;20239;-80
2023/09/07 06:22:50;;;;;;;8.93;8.23;;;19.80;63.90;;;;;;6200229;28;20326;-73
2023/09/07 06:25:53;;;;;;;8.70;8.00;;;19.90;63.80;;;;;;6208259;28;20267;-82
2023/09/07 06:28:57;;;;;;;7.93;7.30;;;20.00;64.00;;;;;;6200178;28;20252;-79
2023/09/07 06:32:00;;;;;;;8.40;7.60;;;20.10;63.60;;;;;;6210652;28;20278;-80
2023/09/07 06:35:04;;;;;;;11.20;9.07;;;20.10;63.30;;;;;;6210837;28;20744;-80
2023/09/07 06:38:08;;;;;;;8.20;7.30;;;20.20;63.30;;;;;;6192414;28;20235;-80
2023/09/07 06:41:12;;;;;;;8.20;7.53;;;20.20;63.30;;;;;;6202535;28;20287;-81
2023/09/07 06:44:16;;;;;;;9.23;8.47;;;20.30;63.20;;;;;;6209537;28;20253;-79
2023/09/07 06:47:19;;;;;;;8.20;7.37;;;20.30;62.80;;;;;;6204136;28;20845;-79
2023/09/07 06:50:22;;;;;;;7.53;6.90;;;20.40;62.70;;;;;;6205219;28;20243;-78
2023/09/07 06:53:25;;;;;;;7.90;7.20;;;20.60;62.40;;;;;;6220479;28;20235;-80
2023/09/07 06:56:47;;;;;;;7.73;7.23;;;20.90;62.20;;;;;;6203855;28;20402;-80
2023/09/07 06:59:52;;;;;;;10.37;7.93;;;21.10;61.40;;;;;;6198348;28;20243;-80
2023/09/07 07:02:55;;;;;;;9.67;8.73;;;21.40;60.90;;;;;;6204669;28;20243;-79
2023/09/07 07:06:01;;;;;;;8.43;7.67;;;21.40;59.50;;;;;;6205470;28;20259;-77
2023/09/07 07:09:04;;;;;;;9.13;8.33;;;21.50;59.60;;;;;;6209141;28;20263;-80
2023/09/07 07:12:08;;;;;;;7.00;6.53;;;21.40;59.80;;;;;;6209166;28;20243;-78
2023/09/07 07:15:13;;;;;;;7.80;6.93;;;21.40;59.70;;;;;;6208525;28;20226;-80
2023/09/07 07:18:16;;;;;;;7.90;7.20;;;21.40;60.20;;;;;;6193576;28;20262;-81
2023/09/07 07:21:19;;;;;;;9.77;7.10;;;21.30;60.20;;;;;;6203065;28;20625;-80
2023/09/07 07:24:23;;;;;;;8.67;7.97;;;21.40;60.30;;;;;;6202710;28;20846;-80
2023/09/07 07:27:26;;;;;;;7.80;7.10;;;21.40;60.10;;;;;;6207250;28;20231;-80
2023/09/07 07:30:30;;;;;;;8.90;7.20;;;21.40;60.30;;;;;;6206821;28;20312;-81
2023/09/07 07:33:34;;;;;;;7.20;6.60;;;21.50;60.60;;;;;;6202189;28;20290;-80
2023/09/07 07:36:38;;;;;;;12.80;7.27;;;21.60;60.50;;;;;;6206339;28;20858;-80
2023/09/07 07:39:41;;;;;;;7.60;7.00;;;21.70;59.80;;;;;;6207260;28;20623;-79
2023/09/07 07:42:44;;;;;;;8.73;7.23;;;21.90;58.80;;;;;;6205911;28;20235;-82
2023/09/07 07:45:48;;;;;;;8.90;7.93;;;21.90;59.20;;;;;;6206397;28;20236;-81
2023/09/07 07:48:52;;;;;;;9.17;8.37;;;21.90;59.00;;;;;;6204460;28;20240;-79
2023/09/07 07:51:57;;;;;;;7.97;7.33;;;21.90;58.80;;;;;;6217123;28;20242;-79
2023/09/07 07:55:00;;;;;;;7.27;6.70;;;21.90;59.60;;;;;;6202731;28;20250;-80
2023/09/07 07:58:04;;;;;;;7.40;6.77;;;21.90;59.80;;;;;;6217099;28;20323;-79
2023/09/07 08:01:16;;;;;;;6.67;6.27;;;22.00;59.50;;;;;;6213369;28;20250;-79
2023/09/07 08:04:19;;;;;;;7.60;6.90;;;22.10;59.50;;;;;;6206240;28;20251;-79
2023/09/07 08:07:23;;;;;;;7.97;7.30;;;22.10;59.00;;;;;;6211505;28;20239;-79
2023/09/07 08:10:26;;;;;;;8.03;7.27;;;22.30;59.20;;;;;;6209768;28;20835;-78
2023/09/07 08:13:34;;;;;;;9.07;7.80;;;22.30;58.60;;;;;;6211094;28;20242;-82
2023/09/07 08:16:39;;;;;;;9.70;8.10;;;22.50;58.30;;;;;;6212121;28;20295;-79
2023/09/07 08:19:43;;;;;;;8.77;7.80;;;22.50;58.30;;;;;;6213245;28;20238;-79
2023/09/07 08:22:47;;;;;;;7.43;6.70;;;22.60;57.80;;;;;;6211128;28;20228;-79
2023/09/07 08:25:51;;;;;;;7.87;6.93;;;22.70;58.10;;;;;;6210887;28;20236;-78
2023/09/07 08:28:55;;;;;;;7.07;6.57;;;22.80;57.60;;;;;;6199875;28;20251;-77
2023/09/07 08:32:01;;;;;;;7.97;7.17;;;22.90;57.10;;;;;;6209777;28;20244;-79
2023/09/07 08:35:07;;;;;;;11.93;7.60;;;23.00;57.40;;;;;;6205917;28;20251;-80
2023/09/07 08:38:10;;;;;;;7.47;6.87;;;23.20;57.50;;;;;;6208655;28;20250;-81
2023/09/07 08:41:15;;;;;;;7.07;6.53;;;23.20;56.90;;;;;;6211422;28;20900;-81
2023/09/07 08:44:19;;;;;;;9.20;7.40;;;23.40;57.00;;;;;;6209166;28;21026;-80
2023/09/07 08:47:24;;;;;;;8.27;7.30;;;23.50;56.20;;;;;;6211648;28;20864;-79
2023/09/07 08:50:28;;;;;;;10.50;7.03;;;23.60;56.00;;;;;;6209019;28;20309;-80
2023/09/07 08:53:34;;;;;;;6.90;6.00;;;23.80;55.30;;;;;;6209293;28;20239;-81
2023/09/07 08:56:38;;;;;;;6.93;6.33;;;23.90;55.00;;;;;;6209716;28;20310;-81
2023/09/07 08:59:41;;;;;;;6.90;6.00;;;24.00;54.80;;;;;;6196851;28;20239;-82
2023/09/07 09:02:47;;;;;;;8.00;6.43;;;24.20;54.60;;;;;;6208712;28;20334;-77
2023/09/07 09:05:55;;;;;;;7.40;6.30;;;24.20;54.30;;;;;;6210176;28;20235;-80
2023/09/07 09:08:58;;;;;;;7.10;6.50;;;24.40;54.70;;;;;;6207276;28;20402;-80
2023/09/07 09:12:09;;;;;;;8.17;5.97;;;24.50;53.50;;;;;;6216756;28;20266;-82
2023/09/07 09:15:12;;;;;;;7.67;6.70;;;24.60;53.50;;;;;;6208345;28;20244;-79
2023/09/07 09:18:17;;;;;;;7.10;6.40;;;24.70;53.70;;;;;;6205084;28;20669;-78
2023/09/07 09:21:21;;;;;;;6.67;6.07;;;24.80;53.00;;;;;;6209290;28;20327;-80
2023/09/07 09:24:24;;;;;;;6.50;6.10;;;25.00;53.10;;;;;;6204930;28;20275;-82
2023/09/07 09:27:27;;;;;;;9.20;6.23;;;25.00;53.00;;;;;;6200639;28;20659;-80
2023/09/07 09:30:31;;;;;;;7.23;6.70;;;25.20;52.00;;;;;;6198141;28;20239;-80
2023/09/07 09:33:36;;;;;;;6.83;6.13;;;25.30;51.20;;;;;;6207690;28;20243;-82
2023/09/07 09:36:42;;;;;;;9.83;6.73;;;25.50;50.80;;;;;;6208705;28;20274;-81
2023/09/07 09:39:51;;;;;;;6.70;6.13;;;25.60;50.70;;;;;;6207975;28;20858;-81
2023/09/07 09:42:56;;;;;;;6.70;6.13;;;25.70;49.50;;;;;;6208843;28;20329;-80
2023/09/07 09:46:01;;;;;;;6.63;6.13;;;25.80;50.20;;;;;;6205928;28;20236;-79
2023/09/07 09:49:11;;;;;;;12.33;7.03;;;25.80;49.80;;;;;;6208326;28;20238;-79
2023/09/07 09:52:14;;;;;;;14.10;7.07;;;26.00;50.00;;;;;;6219397;28;20238;-80
2023/09/07 09:55:19;;;;;;;11.23;6.27;;;26.00;48.70;;;;;;6218607;28;20227;-77
2023/09/07 09:58:22;;;;;;;7.77;6.87;;;26.00;49.60;;;;;;6207412;28;20644;-78
2023/09/07 10:01:31;;;;;;;8.53;6.17;;;26.10;49.10;;;;;;6206872;28;20768;-78
2023/09/07 10:04:38;;;;;;;6.70;6.20;;;26.10;48.40;;;;;;6202449;28;20727;-79
2023/09/07 10:07:45;;;;;;;7.23;6.57;;;26.10;49.20;;;;;;6199605;28;20239;-82
2023/09/07 10:10:54;;;;;;;8.53;6.40;;;26.20;49.20;;;;;;6201778;28;20254;-83
2023/09/07 10:14:00;;;;;;;12.73;6.70;;;26.40;49.30;;;;;;6211858;28;20742;-79
2023/09/07 10:17:04;;;;;;;22.27;8.20;;;26.60;48.70;;;;;;6210887;28;20785;-82
2023/09/07 10:20:13;;;;;;;6.97;5.97;;;26.60;48.20;;;;;;6209687;28;20306;-78
2023/09/07 10:23:24;;;;;;;6.97;6.27;;;26.70;48.00;;;;;;6200465;28;20243;-80
2023/09/07 10:26:31;;;;;;;6.17;5.67;;;26.80;47.90;;;;;;6204934;28;20228;-80
2023/09/07 10:29:43;;;;;;;6.63;6.03;;;26.90;47.30;;;;;;6209919;28;20861;-78
2023/09/07 10:32:47;;;;;;;5.40;5.10;;;27.00;46.70;;;;;;6204603;28;20645;-79
2023/09/07 10:36:03;;;;;;;6.27;5.70;;;27.10;47.30;;;;;;6200956;28;20235;-79
2023/09/07 10:39:12;;;;;;;5.77;5.47;;;27.20;47.10;;;;;;6209038;28;20248;-80
2023/09/07 10:42:33;;;;;;;6.33;5.73;;;27.30;46.20;;;;;;6210057;28;20228;-78
2023/09/07 10:45:40;;;;;;;6.37;5.87;;;27.30;46.20;;;;;;6205118;28;20234;-81
2023/09/07 10:48:45;;;;;;;6.00;5.60;;;27.40;46.10;;;;;;6209513;28;20627;-78
2023/09/07 10:51:50;;;;;;;6.83;6.20;;;27.50;46.50;;;;;;6208191;28;20670;-80
2023/09/07 10:54:59;;;;;;;5.93;5.63;;;27.60;46.20;;;;;;6210089;28;20875;-81
2023/09/07 10:58:02;;;;;;;5.90;5.37;;;27.90;45.20;;;;;;6208721;28;20235;-80
2023/09/07 11:01:07;;;;;;;7.30;5.87;;;28.00;45.40;;;;;;6211626;28;20814;-85
2023/09/07 11:04:11;;;;;;;5.53;5.23;;;28.10;45.40;;;;;;6197504;28;20239;-80
2023/09/07 11:07:22;;;;;;;8.40;5.17;;;28.10;44.80;;;;;;6225945;28;21455;-80
2023/09/07 11:10:25;;;;;;;5.67;5.23;;;28.20;44.60;;;;;;6222322;28;20235;-82
2023/09/07 11:13:28;;;;;;;5.53;5.13;;;28.30;44.70;;;;;;6216426;28;20345;-80
2023/09/07 11:16:34;;;;;;;5.32;5.03;;;28.30;44.20;;;;;;6203564;28;20329;-85
2023/09/07 11:19:37;;;;;;;5.50;4.40;;;28.30;44.60;;;;;;6216164;28;20247;-80
2023/09/07 11:22:43;;;;;;;5.05;4.75;;;28.20;44.00;;;;;;6217874;28;20730;-85
2023/09/07 11:26:06;;;;;;;5.57;4.90;;;28.10;44.20;;;;;;6213311;28;20227;-85
2023/09/07 11:29:11;;;;;;;4.67;4.40;;;28.30;43.90;;;;;;6210530;28;20250;-84
2023/09/07 11:32:21;;;;;;;5.10;4.68;;;28.20;43.60;;;;;;6207738;28;20235;-86
2023/09/07 11:35:24;;;;;;;4.60;4.28;;;28.10;43.30;;;;;;6208276;28;20246;-84
2023/09/07 11:38:36;;;;;;;4.60;4.30;;;28.30;43.70;;;;;;6205881;28;20611;-83
2023/09/07 11:41:40;;;;;;;4.55;4.28;;;28.40;43.40;;;;;;6210881;28;20285;-84
2023/09/07 11:44:44;;;;;;;4.53;4.40;;;28.30;42.90;;;;;;6215908;28;20245;-82
2023/09/07 11:47:47;;;;;;;4.90;4.45;;;28.50;43.50;;;;;;6205404;28;20817;-85
2023/09/07 11:50:50;;;;;;;3.70;3.60;;;28.60;44.00;;;;;;6213102;28;20316;-82
2023/09/07 11:53:55;;;;;;;5.30;5.10;;;28.70;43.30;;;;;;6214455;28;20723;-81
2023/09/07 11:56:58;;;;;;;5.30;4.82;;;28.70;43.20;;;;;;6212140;28;20246;-83
2023/09/07 12:00:02;;;;;;;5.10;4.70;;;28.90;43.00;;;;;;6210277;28;20566;-81
2023/09/07 12:03:05;;;;;;;4.88;4.68;;;28.90;42.70;;;;;;6204575;28;20338;-85
2023/09/07 12:06:08;;;;;;;5.40;5.10;;;28.90;43.00;;;;;;6211290;28;20238;-83
2023/09/07 12:09:14;;;;;;;4.68;4.20;;;28.90;43.00;;;;;;6217843;28;20251;-86
2023/09/07 12:12:17;;;;;;;4.80;4.50;;;28.90;42.90;;;;;;6214702;28;20231;-83
2023/09/07 12:15:21;;;;;;;4.85;4.65;;;29.20;43.40;;;;;;6213245;28;20362;-86
2023/09/07 12:18:24;;;;;;;5.28;4.97;;;29.30;42.70;;;;;;6214739;28;20662;-82
2023/09/07 12:21:28;;;;;;;5.18;4.82;;;29.10;42.90;;;;;;6207762;28;20726;-84
2023/09/07 12:24:32;;;;;;;6.00;4.60;;;29.10;42.70;;;;;;6218881;28;20227;-86
2023/09/07 12:27:35;;;;;;;4.97;4.40;;;29.10;42.80;;;;;;6208982;28;20243;-84
2023/09/07 12:30:54;;;;;;;5.00;4.55;;;29.10;42.70;;;;;;6198620;28;20230;-87
2023/09/07 12:33:58;;;;;;;4.70;4.45;;;29.20;42.10;;;;;;6207548;28;20236;-82
2023/09/07 12:37:03;;;;;;;5.07;4.78;;;29.00;42.30;;;;;;6209945;28;20239;-81
2023/09/07 12:40:12;;;;;;;3.95;3.85;;;29.00;42.30;;;;;;6213900;28;20260;-83
2023/09/07 12:43:15;;;;;;;5.00;4.80;;;29.00;42.50;;;;;;6208721;28;20236;-83
2023/09/07 12:46:18;;;;;;;6.32;4.88;;;29.10;42.30;;;;;;6213557;28;20239;-84
2023/09/07 12:49:22;;;;;;;7.82;4.93;;;29.10;42.30;;;;;;6211876;28;20242;-83
2023/09/07 12:52:25;;;;;;;5.10;4.53;;;29.20;41.80;;;;;;6210471;28;20295;-85
2023/09/07 12:55:30;;;;;;;4.53;4.32;;;29.20;42.00;;;;;;6220993;28;20242;-84
2023/09/07 12:58:33;;;;;;;4.65;4.32;;;29.20;41.70;;;;;;6227733;28;20250;-79
2023/09/07 13:01:36;;;;;;;5.18;4.72;;;29.20;42.50;;;;;;6223257;28;20374;-82
2023/09/07 13:04:39;;;;;;;6.22;5.63;;;29.20;42.20;;;;;;6227796;28;20254;-79
2023/09/07 13:07:43;;;;;;;6.70;5.10;;;29.20;42.80;;;;;;6234287;28;20346;-81
2023/09/07 13:10:48;;;;;;;5.18;4.88;;;29.30;43.30;;;;;;6237289;28;20223;-79
2023/09/07 13:13:52;;;;;;;5.38;5.03;;;29.30;43.60;;;;;;6240147;28;20231;-80
2023/09/07 13:16:55;;;;;;;4.95;4.68;;;29.30;43.20;;;;;;6235633;28;20266;-79
2023/09/07 13:19:59;;;;;;;5.30;5.03;;;29.20;43.20;;;;;;6234098;28;20297;-77
2023/09/07 13:23:02;;;;;;;6.13;5.78;;;29.00;43.70;;;;;;6205698;28;20224;-79
2023/09/07 13:26:06;;;;;;;5.93;5.40;;;29.00;43.70;;;;;;6209611;28;20377;-78
2023/09/07 13:29:09;;;;;;;16.25;5.97;;;29.20;44.10;;;;;;6209880;28;20766;-81
2023/09/07 13:32:12;;;;;;;6.00;5.50;;;29.20;43.70;;;;;;6209704;28;20504;-78
2023/09/07 13:35:16;;;;;;;5.63;5.22;;;29.30;43.50;;;;;;6207624;28;20392;-77
2023/09/07 13:38:19;;;;;;;7.28;5.03;;;29.40;43.50;;;;;;6212370;28;20789;-78
2023/09/07 13:41:23;;;;;;;8.73;4.35;;;29.40;43.10;;;;;;6210001;28;20386;-79
2023/09/07 13:44:26;;;;;;;5.53;5.22;;;29.50;43.00;;;;;;6209767;28;20251;-77
2023/09/07 13:47:29;;;;;;;5.40;5.03;;;29.50;43.00;;;;;;6208014;28;20329;-81
2023/09/07 13:50:33;;;;;;;5.68;5.18;;;29.40;42.40;;;;;;6206722;28;20283;-78
2023/09/07 13:53:38;;;;;;;5.20;4.90;;;29.30;42.90;;;;;;6209112;28;20250;-78
2023/09/07 13:56:44;;;;;;;5.07;4.57;;;29.40;43.20;;;;;;6208744;28;20314;-80
2023/09/07 13:59:48;;;;;;;5.93;5.43;;;29.50;43.50;;;;;;6209449;28;20255;-78
2023/09/07 14:02:52;;;;;;;7.15;5.47;;;29.50;42.90;;;;;;6208328;28;20793;-80
2023/09/07 14:05:56;;;;;;;5.60;5.18;;;29.40;43.60;;;;;;6209700;28;20309;-80
2023/09/07 14:08:59;;;;;;;5.32;4.93;;;29.40;42.40;;;;;;6198377;28;20324;-82
2023/09/07 14:12:04;;;;;;;4.68;4.47;;;29.40;42.60;;;;;;6209321;28;20247;-80
2023/09/07 14:15:08;;;;;;;5.05;4.72;;;29.40;42.70;;;;;;6209854;28;20739;-82
2023/09/07 14:18:11;;;;;;;5.15;4.75;;;29.30;42.70;;;;;;6208685;28;20250;-81
2023/09/07 14:21:15;;;;;;;5.18;4.75;;;29.30;43.20;;;;;;6209646;28;20265;-79
2023/09/07 14:24:19;;;;;;;6.00;5.47;;;29.10;43.00;;;;;;6207489;28;20338;-81
2023/09/07 14:27:24;;;;;;;7.03;5.97;;;29.20;43.00;;;;;;6209295;28;20227;-81
2023/09/07 14:30:27;;;;;;;5.15;4.95;;;29.20;43.50;;;;;;6210239;28;20258;-81
2023/09/07 14:33:30;;;;;;;5.53;5.22;;;29.10;43.70;;;;;;6206722;28;20235;-82
2023/09/07 14:36:33;;;;;;;6.28;5.97;;;29.10;43.40;;;;;;6191097;28;20254;-82
2023/09/07 14:39:37;;;;;;;5.57;5.20;;;29.10;43.30;;;;;;6212012;28;20325;-82
2023/09/07 14:42:42;;;;;;;6.13;5.57;;;29.10;44.20;;;;;;6210376;28;20750;-80
2023/09/07 14:45:45;;;;;;;5.70;5.40;;;29.10;42.90;;;;;;6208058;28;20717;-83
2023/09/07 14:48:49;;;;;;;6.57;5.95;;;29.20;43.50;;;;;;6211564;28;20266;-78
2023/09/07 14:51:52;;;;;;;7.55;6.03;;;29.20;43.90;;;;;;6209123;28;20246;-80
2023/09/07 14:54:55;;;;;;;6.07;5.70;;;29.10;44.50;;;;;;6204416;28;20239;-81
2023/09/07 14:58:00;;;;;;;6.47;5.90;;;29.00;44.00;;;;;;6209744;28;20243;-80
2023/09/07 15:01:03;;;;;;;6.82;5.88;;;29.00;44.20;;;;;;6207334;28;20301;-80
2023/09/07 15:04:06;;;;;;;5.70;5.38;;;28.90;43.90;;;;;;6207348;28;20242;-80
2023/09/07 15:07:09;;;;;;;6.03;5.72;;;28.90;43.80;;;;;;6198202;28;20338;-82
2023/09/07 15:10:12;;;;;;;6.60;5.97;;;28.80;43.30;;;;;;6209230;28;20239;-81
2023/09/07 15:13:17;;;;;;;10.80;5.03;;;28.80;43.50;;;;;;6210803;28;20322;-83
2023/09/07 15:16:20;;;;;;;6.57;5.93;;;28.80;43.90;;;;;;6192775;28;20483;-82
2023/09/07 15:19:24;;;;;;;5.47;5.18;;;28.80;44.00;;;;;;6196422;28;20251;-79
2023/09/07 15:22:27;;;;;;;6.53;6.05;;;28.70;44.00;;;;;;6193450;28;20827;-81
2023/09/07 15:25:31;;;;;;;6.38;5.93;;;28.60;43.10;;;;;;6194314;28;20243;-82
2023/09/07 15:28:37;;;;;;;5.82;5.53;;;28.50;43.70;;;;;;6197180;28;20634;-81
2023/09/07 15:31:41;;;;;;;6.05;5.68;;;28.40;43.70;;;;;;6223554;28;20228;-78
2023/09/07 15:34:45;;;;;;;6.03;5.70;;;28.40;43.80;;;;;;6223774;28;20738;-82
2023/09/07 15:37:48;;;;;;;6.90;6.45;;;28.30;44.60;;;;;;6206394;28;20289;-80
2023/09/07 15:40:51;;;;;;;6.72;6.43;;;28.20;44.80;;;;;;6211082;28;20646;-82
2023/09/07 15:43:56;;;;;;;7.13;6.67;;;28.10;45.20;;;;;;6207468;28;20371;-81
2023/09/07 15:46:59;;;;;;;7.05;6.60;;;28.00;45.40;;;;;;6203572;28;20790;-82
2023/09/07 15:50:02;;;;;;;6.37;5.90;;;27.90;45.70;;;;;;6205739;28;20235;-82
2023/09/07 15:53:07;;;;;;;6.33;5.93;;;27.80;45.20;;;;;;6205321;28;20239;-80
2023/09/07 15:56:11;;;;;;;6.23;5.63;;;27.70;45.10;;;;;;6206982;28;20239;-82
2023/09/07 15:59:15;;;;;;;7.43;6.93;;;27.60;45.00;;;;;;6207534;28;20246;-80